メインページ
METAR-TAF:

METAR-TAF

空港 :

ケアンズ国際空港

ケアンズ, オーストラリア

緯度: 16-53S, 経度: 145-45E, 海抜: 3m

現時点の気象観測

当レポートは33分前の01:00(UTC)に作成
北東の風 9kt
気温 29°C
湿度 70%
気圧 1014 hPa
視程10km以上
高度2800ftの雲はほとんどない

METAR: YBCS 160100Z 05009KT 9999 FEW028 29/23 Q1014 NOSIG

時間: 11:33 (01:33 UTC)

予報

当レポートは2時間19分前の23:14(UTC)に作成
予報は16日の 00時(UTC)から 16日の 24時(UTC)まで有効
北東の風 10kt
視程10km以上
高度2500ftの雲はほとんどない
高度4500ftの雲は散在している
16日の 0900時(UTC)から
南東の風 8kt
視程10km以上
高度2000ftの雲は散在している
高度3500ftの雲は散在している

TAF: YBCS 152314Z 1600/1624 04010KT 9999 FEW025 SCT045 FM160900 14008KT 9999 SCT020 SCT035

4,000以上の空港の気象観測と天気予報(METAR報とTAF報)

利用可能な観測所は地図上に黄色い丸と赤い丸で示す。

丸の上にカーソルを重ねると観測所名を参照できる。

次にクリックすると気象観測と天気予報を参照できる。

マップの切り替え:黒色「×」印の緑ボタンをクリックして拡大、「-」印の緑ボタンをクリックして縮小、緑色の三角印をクリックして隣りの地図に切り替え


METAR-TAF: